Time;durP1;ratioP1;P1;durP2;ratioP2;P2;SDS_P1;SDS_P2;PMS_P1;PMS_P2;Temp;Humidity;BMP_temperature;BMP_pressure;BME280_temperature;BME280_humidity;BME280_pressure;Samples;Min_cycle;Max_cycle;Signal;HPM_P1;HPM_P2
2021/12/25 00:01:47;;;;;;;8.00;1.17;;;-1.40;99.90;;;;;;4974903;28;20043;-83
2021/12/25 00:04:13;;;;;;;5.95;1.02;;;-1.40;99.90;;;;;;4975230;28;20120;-83
2021/12/25 00:06:39;;;;;;;5.63;1.02;;;-1.50;99.90;;;;;;4970511;23;20496;-83
2021/12/25 00:09:06;;;;;;;5.45;1.00;;;-1.50;99.90;;;;;;4969638;28;20160;-83
2021/12/25 00:11:32;;;;;;;3.70;0.73;;;-1.60;99.90;;;;;;4971710;28;20113;-83
2021/12/25 00:13:58;;;;;;;5.05;0.70;;;-0.40;99.90;;;;;;4956031;28;20133;-83
2021/12/25 00:16:23;;;;;;;7.30;1.02;;;-1.70;99.90;;;;;;4985308;28;20129;-83
2021/12/25 00:18:49;;;;;;;5.57;0.85;;;-1.70;99.90;;;;;;4955102;28;20046;-83
2021/12/25 00:21:14;;;;;;;6.95;0.77;;;-1.80;99.90;;;;;;4955936;28;20077;-83
2021/12/25 00:23:40;;;;;;;3.75;0.77;;;-1.80;99.90;;;;;;4954762;28;20108;-83
2021/12/25 00:26:24;;;;;;;9.35;1.05;;;-1.80;99.90;;;;;;4956208;28;20073;-83
2021/12/25 00:28:58;;;;;;;7.57;0.93;;;-1.90;99.90;;;;;;4972229;28;20061;-83
2021/12/25 00:31:41;;;;;;;7.53;0.88;;;-1.90;99.90;;;;;;4954650;28;20482;-82
2021/12/25 00:34:07;;;;;;;7.93;0.88;;;-1.90;99.90;;;;;;4955514;28;20035;-83
2021/12/25 00:36:32;;;;;;;5.18;0.90;;;-2.00;99.90;;;;;;4955137;28;20591;-82
2021/12/25 00:38:58;;;;;;;4.55;1.10;;;-2.00;99.90;;;;;;4971239;28;20053;-82
2021/12/25 00:41:24;;;;;;;7.03;1.10;;;-2.00;99.90;;;;;;4936389;28;20054;-82
2021/12/25 00:43:50;;;;;;;6.20;1.05;;;-2.10;99.90;;;;;;4939486;28;20057;-82
2021/12/25 00:46:16;;;;;;;7.97;0.93;;;-2.10;99.90;;;;;;4936364;28;20105;-82
2021/12/25 00:48:42;;;;;;;7.47;0.82;;;-2.10;99.90;;;;;;4935736;28;20050;-82
2021/12/25 00:51:08;;;;;;;7.30;1.15;;;-2.10;99.90;;;;;;4936093;28;20074;-82
2021/12/25 00:53:33;;;;;;;4.20;0.68;;;-2.20;99.90;;;;;;4936261;28;20054;-82
2021/12/25 00:55:59;;;;;;;6.68;0.70;;;-2.20;99.90;;;;;;4952611;28;20479;-82
2021/12/25 00:58:25;;;;;;;5.75;1.00;;;-2.20;99.90;;;;;;4935031;28;20054;-82
2021/12/25 01:00:51;;;;;;;3.75;0.75;;;-2.30;99.90;;;;;;4936639;28;20047;-82
2021/12/25 01:03:17;;;;;;;1.45;0.40;;;-1.30;99.90;;;;;;4934604;28;20046;-82
2021/12/25 01:05:50;;;;;;;2.15;0.57;;;-2.30;99.90;;;;;;4935758;28;20047;-82
2021/12/25 01:08:16;;;;;;;3.90;0.65;;;-2.40;99.90;;;;;;4922975;28;20054;-82
2021/12/25 01:10:42;;;;;;;4.68;0.70;;;-2.40;99.90;;;;;;4956403;28;20090;-82
2021/12/25 01:13:12;;;;;;;3.00;0.68;;;-2.50;99.90;;;;;;4939521;28;20038;-83
2021/12/25 01:15:56;;;;;;;2.33;0.60;;;-2.50;99.90;;;;;;4939732;28;20046;-82
2021/12/25 01:18:53;;;;;;;4.88;0.90;;;-2.50;99.90;;;;;;4938846;28;20113;-82
2021/12/25 01:32:37;;;;;;;7.45;0.75;;;-2.60;99.90;;;;;;4955305;28;20509;-82
2021/12/25 01:35:17;;;;;;;2.63;0.40;;;-2.70;99.90;;;;;;4956096;28;20533;-82
2021/12/25 01:38:09;;;;;;;3.42;0.43;;;-2.70;99.90;;;;;;4955731;28;20051;-83
2021/12/25 01:48:40;;;;;;;2.83;0.60;;;-2.80;99.90;;;;;;4956157;28;20076;-81
2021/12/25 01:51:06;;;;;;;2.58;0.70;;;-2.90;99.90;;;;;;4955555;28;20055;-82
2021/12/25 01:53:32;;;;;;;1.40;0.45;;;-2.90;99.90;;;;;;4954922;28;20494;-82
2021/12/25 01:56:00;;;;;;;3.15;0.57;;;-2.90;99.90;;;;;;4939160;28;20079;-82
2021/12/25 01:58:26;;;;;;;3.92;0.60;;;-2.90;99.90;;;;;;4939175;28;20046;-82
2021/12/25 02:00:55;;;;;;;3.03;0.47;;;-3.00;99.90;;;;;;4938598;28;20171;-83
2021/12/25 02:03:25;;;;;;;3.67;0.65;;;-3.00;99.90;;;;;;4938501;28;20043;-82
2021/12/25 02:05:51;;;;;;;6.22;0.80;;;-3.00;99.90;;;;;;4945171;29;20699;-82
2021/12/25 02:08:24;;;;;;;2.83;0.47;;;-3.00;99.90;;;;;;4919002;29;20054;-82
2021/12/25 02:10:49;;;;;;;3.90;0.82;;;-3.00;99.90;;;;;;4920353;29;20502;-82
2021/12/25 02:13:17;;;;;;;3.45;0.47;;;-3.00;99.90;;;;;;4920188;29;20097;-82
2021/12/25 02:15:45;;;;;;;1.05;0.35;;;-3.00;99.90;;;;;;4935676;29;20050;-83
2021/12/25 02:20:55;;;;;;;2.95;0.40;;;-3.10;99.90;;;;;;4935258;29;20055;-82
2021/12/25 02:23:23;;;;;;;;;;;-3.10;99.90;;;;;;4934884;29;20043;-82
2021/12/25 02:25:54;;;;;;;2.97;0.60;;;-3.20;99.90;;;;;;4920354;29;20374;-83
2021/12/25 02:28:21;;;;;;;3.78;0.55;;;-3.20;99.90;;;;;;4934756;29;20134;-82
2021/12/25 02:30:51;;;;;;;3.08;0.40;;;-3.20;99.90;;;;;;4919551;29;20047;-83
2021/12/25 02:33:17;;;;;;;1.98;0.25;;;-3.20;99.90;;;;;;4934223;29;20043;-82
2021/12/25 02:35:44;;;;;;;2.83;0.50;;;-3.20;99.90;;;;;;4935964;29;20055;-83
2021/12/25 02:38:10;;;;;;;2.45;0.38;;;-3.20;99.90;;;;;;4919087;29;20130;-83
2021/12/25 02:40:36;;;;;;;1.45;0.38;;;-3.30;99.90;;;;;;4934855;29;20129;-82
2021/12/25 02:43:02;;;;;;;1.90;0.45;;;-3.30;99.90;;;;;;4918908;29;20047;-82
2021/12/25 02:45:28;;;;;;;1.80;0.40;;;-3.30;99.90;;;;;;4919287;29;20089;-82
2021/12/25 02:47:56;;;;;;;4.85;0.55;;;-3.30;99.90;;;;;;4918993;29;20502;-82
2021/12/25 02:50:23;;;;;;;0.90;0.30;;;-3.30;99.90;;;;;;4918381;29;20043;-82
2021/12/25 02:52:49;;;;;;;5.90;0.40;;;-3.30;99.90;;;;;;4920248;29;20043;-82
2021/12/25 02:55:15;;;;;;;3.15;0.40;;;-3.40;99.90;;;;;;4919354;29;20150;-82
2021/12/25 02:57:41;;;;;;;1.90;0.20;;;-3.30;99.90;;;;;;4918347;29;20057;-81
2021/12/25 03:00:08;;;;;;;1.63;0.30;;;-3.40;99.90;;;;;;4935559;29;20392;-82
2021/12/25 03:02:34;;;;;;;4.47;0.57;;;-3.40;99.90;;;;;;4933612;29;20091;-82
2021/12/25 03:05:01;;;;;;;3.25;0.52;;;-3.40;99.90;;;;;;4934764;28;20099;-82
2021/12/25 03:07:26;;;;;;;3.70;0.30;;;-3.40;99.90;;;;;;4919154;29;20077;-82
2021/12/25 03:09:52;;;;;;;2.03;0.50;;;-3.50;99.90;;;;;;4919723;29;20043;-82
2021/12/25 03:12:34;;;;;;;3.90;0.40;;;-3.50;99.90;;;;;;4918093;29;20114;-82
2021/12/25 03:15:06;;;;;;;1.80;0.35;;;-3.50;99.90;;;;;;4905371;29;20212;-83
2021/12/25 03:17:33;;;;;;;2.33;0.40;;;-3.50;99.90;;;;;;4917921;29;20054;-82
2021/12/25 03:19:59;;;;;;;3.53;0.70;;;-3.60;99.90;;;;;;4918918;29;20055;-82
2021/12/25 03:22:25;;;;;;;1.92;0.35;;;-3.60;99.90;;;;;;4918225;29;20051;-82
2021/12/25 03:24:51;;;;;;;3.70;0.45;;;-3.60;99.90;;;;;;4935515;29;20113;-82
2021/12/25 03:27:17;;;;;;;2.42;0.50;;;-3.60;99.90;;;;;;4918139;29;20491;-82
2021/12/25 03:29:43;;;;;;;3.00;0.40;;;-3.60;99.90;;;;;;4934814;28;20130;-82
2021/12/25 03:32:10;;;;;;;2.22;0.40;;;-3.60;99.90;;;;;;4917398;29;20860;-82
2021/12/25 03:34:36;;;;;;;2.42;0.50;;;-3.70;99.90;;;;;;4918081;29;20102;-82
2021/12/25 03:37:03;;;;;;;4.45;1.27;;;-3.70;99.90;;;;;;4919109;29;20082;-82
2021/12/25 03:39:30;;;;;;;1.30;0.30;;;-3.70;99.90;;;;;;4917572;29;20054;-82
2021/12/25 03:41:58;;;;;;;1.83;0.38;;;-3.70;99.90;;;;;;4934907;29;20051;-82
2021/12/25 03:44:25;;;;;;;4.10;0.63;;;-3.70;99.90;;;;;;4918245;29;20506;-83
2021/12/25 03:46:53;;;;;;;5.88;0.60;;;-3.80;99.90;;;;;;4933313;29;20202;-82
2021/12/25 03:53:06;;;;;;;2.85;0.30;;;-3.80;99.90;;;;;;4934257;29;20039;-82
2021/12/25 03:58:09;;;;;;;1.33;0.40;;;-3.80;99.90;;;;;;4952061;29;20051;-83
2021/12/25 04:00:37;;;;;;;2.30;0.40;;;-3.80;99.90;;;;;;4917631;29;20047;-83
2021/12/25 04:03:07;;;;;;;7.10;0.60;;;-3.90;99.90;;;;;;4918180;29;20053;-82
2021/12/25 04:05:35;;;;;;;2.53;0.40;;;-3.90;99.90;;;;;;4918084;29;20054;-82
2021/12/25 04:08:34;;;;;;;2.40;0.50;;;-3.90;99.90;;;;;;4933679;29;20109;-82
2021/12/25 04:11:11;;;;;;;2.92;0.50;;;-4.00;99.90;;;;;;4913739;29;20062;-82
2021/12/25 04:13:36;;;;;;;1.67;0.52;;;-4.00;99.90;;;;;;4897666;29;20407;-82
2021/12/25 04:16:02;;;;;;;4.75;0.55;;;-4.00;99.90;;;;;;4897360;29;20051;-82
2021/12/25 04:18:42;;;;;;;1.17;0.40;;;-4.00;99.90;;;;;;4928782;29;20442;-82
2021/12/25 04:21:09;;;;;;;3.28;0.40;;;-4.00;99.90;;;;;;4898552;29;20175;-82
2021/12/25 04:23:38;;;;;;;4.80;0.60;;;-4.10;99.90;;;;;;4896270;29;20055;-83
2021/12/25 04:26:04;;;;;;;1.77;0.38;;;-4.00;99.90;;;;;;4914355;29;20048;-83
2021/12/25 04:28:45;;;;;;;4.40;0.65;;;-4.10;99.90;;;;;;4912707;29;20048;-83
2021/12/25 04:31:29;;;;;;;2.45;0.77;;;-4.10;99.90;;;;;;4898078;29;20235;-83
2021/12/25 05:04:06;;;;;;;3.22;0.68;;;-4.30;99.90;;;;;;4911607;29;20052;-82
2021/12/25 05:06:32;;;;;;;0.98;0.28;;;-4.30;99.90;;;;;;4927606;29;20051;-82
2021/12/25 05:08:58;;;;;;;4.13;0.40;;;-4.30;99.90;;;;;;4916148;29;20062;-82
2021/12/25 05:11:30;;;;;;;0.85;0.40;;;-4.30;99.90;;;;;;4930815;29;20059;-83
2021/12/25 05:14:00;;;;;;;2.47;0.50;;;-4.30;99.90;;;;;;4925500;28;20062;-82
2021/12/25 05:16:26;;;;;;;1.45;0.50;;;-4.30;99.90;;;;;;4952150;28;20047;-82
2021/12/25 05:19:04;;;;;;;6.13;0.60;;;-4.40;99.90;;;;;;4950802;28;20178;-82
2021/12/25 05:21:35;;;;;;;2.22;0.50;;;-4.40;99.90;;;;;;4969615;28;20652;-82
2021/12/25 05:24:02;;;;;;;2.35;0.60;;;-4.40;99.90;;;;;;4920089;28;20171;-82
2021/12/25 05:26:28;;;;;;;2.83;0.93;;;-4.40;99.90;;;;;;4951317;28;20503;-82
2021/12/25 05:29:07;;;;;;;2.53;0.40;;;-4.40;99.90;;;;;;4952662;28;20043;-81
2021/12/25 05:31:56;;;;;;;2.92;0.50;;;-4.40;99.90;;;;;;4935573;28;20047;-82
2021/12/25 05:34:22;;;;;;;4.40;0.43;;;-4.30;99.90;;;;;;4935139;28;20514;-82
2021/12/25 05:36:48;;;;;;;2.45;0.77;;;-4.40;99.90;;;;;;4951936;28;20813;-82
2021/12/25 05:39:18;;;;;;;1.92;0.35;;;-4.40;99.90;;;;;;4968915;28;20189;-82
2021/12/25 05:42:05;;;;;;;1.30;0.50;;;-4.30;99.90;;;;;;4935961;28;20622;-81
2021/12/25 05:44:37;;;;;;;2.53;0.50;;;-4.40;99.90;;;;;;4951050;28;20062;-82
2021/12/25 05:47:03;;;;;;;6.03;0.47;;;-4.40;99.90;;;;;;4950255;28;20068;-83
2021/12/25 05:49:29;;;;;;;2.38;0.40;;;-4.40;99.90;;;;;;4935723;28;20054;-81
2021/12/25 05:51:55;;;;;;;2.38;0.65;;;-4.40;99.90;;;;;;4951408;28;20051;-81
2021/12/25 05:54:21;;;;;;;3.78;0.38;;;-3.40;99.90;;;;;;4952254;28;20065;-82
2021/12/25 05:56:46;;;;;;;4.00;0.82;;;-4.40;99.90;;;;;;4955438;28;20142;-82
2021/12/25 05:59:12;;;;;;;2.42;0.40;;;-4.40;99.90;;;;;;4955750;28;20074;-82
2021/12/25 06:01:39;;;;;;;1.58;0.32;;;-4.40;99.90;;;;;;4938274;28;20050;-82
2021/12/25 06:04:04;;;;;;;1.27;0.40;;;-4.40;99.90;;;;;;4938806;28;20574;-82
2021/12/25 06:06:30;;;;;;;0.80;0.38;;;-4.40;99.90;;;;;;4930368;29;20142;-82
2021/12/25 06:08:56;;;;;;;2.10;0.50;;;-4.30;99.90;;;;;;4919591;29;20141;-82
2021/12/25 06:11:24;;;;;;;4.38;0.63;;;-4.30;99.90;;;;;;4920069;29;20048;-83
2021/12/25 06:13:58;;;;;;;3.55;0.60;;;-4.30;99.90;;;;;;4920295;29;20047;-83
2021/12/25 06:16:25;;;;;;;4.32;0.52;;;-4.30;99.90;;;;;;4920410;29;20204;-82
2021/12/25 06:18:50;;;;;;;6.00;0.50;;;-4.30;99.90;;;;;;4935338;29;20054;-82
2021/12/25 06:21:16;;;;;;;7.32;0.55;;;-4.30;99.90;;;;;;4919656;29;20047;-81
2021/12/25 06:23:42;;;;;;;3.00;0.88;;;-4.30;99.90;;;;;;4920106;29;20047;-82
2021/12/25 06:26:08;;;;;;;1.45;0.30;;;-4.30;99.90;;;;;;4936060;29;20051;-83
2021/12/25 06:28:33;;;;;;;3.13;0.43;;;-4.30;99.90;;;;;;4918913;29;20109;-82
2021/12/25 06:30:59;;;;;;;3.10;0.60;;;-4.30;99.90;;;;;;4935819;29;20078;-82
2021/12/25 06:33:24;;;;;;;1.77;0.40;;;-4.30;99.90;;;;;;4934603;29;20056;-82
2021/12/25 06:35:51;;;;;;;3.45;0.88;;;-4.30;99.90;;;;;;4935280;29;20039;-82
2021/12/25 06:38:19;;;;;;;0.95;0.30;;;-4.30;99.90;;;;;;4935237;29;20109;-82
2021/12/25 06:40:45;;;;;;;5.18;1.40;;;-4.30;99.90;;;;;;4919629;29;20051;-82
2021/12/25 06:43:11;;;;;;;2.00;0.47;;;-4.30;99.90;;;;;;4918684;29;20043;-82
2021/12/25 06:45:36;;;;;;;6.13;0.52;;;-4.40;99.90;;;;;;4919719;29;20052;-83
2021/12/25 06:48:02;;;;;;;2.50;0.60;;;-4.30;99.90;;;;;;4919315;29;20098;-83
2021/12/25 06:50:28;;;;;;;3.00;0.35;;;-4.40;99.90;;;;;;4918296;29;20491;-82
2021/12/25 06:52:54;;;;;;;3.92;0.73;;;-4.40;99.90;;;;;;4935408;29;20423;-82
2021/12/25 06:55:20;;;;;;;5.00;0.60;;;-4.40;99.90;;;;;;4919013;29;20055;-82
2021/12/25 06:57:52;;;;;;;7.25;0.98;;;-4.50;99.90;;;;;;4934671;29;20050;-83
2021/12/25 07:00:18;;;;;;;3.20;0.47;;;-4.50;99.90;;;;;;4918962;29;20055;-82
2021/12/25 07:02:44;;;;;;;4.90;0.73;;;-4.60;99.90;;;;;;4919181;29;20215;-83
2021/12/25 07:05:11;;;;;;;2.25;0.65;;;-4.60;99.90;;;;;;4919019;29;20105;-82
2021/12/25 07:07:37;;;;;;;3.72;0.60;;;-4.60;99.90;;;;;;4934709;29;20070;-83
2021/12/25 07:10:04;;;;;;;5.53;0.75;;;-4.70;99.90;;;;;;4935581;29;20059;-82
2021/12/25 07:12:35;;;;;;;2.65;0.50;;;-4.70;99.90;;;;;;4917563;29;20179;-82
2021/12/25 07:15:01;;;;;;;2.58;0.50;;;-4.70;99.90;;;;;;4919968;29;20116;-82
2021/12/25 07:17:27;;;;;;;2.22;0.60;;;-4.80;99.90;;;;;;4916883;29;20051;-82
2021/12/25 07:19:52;;;;;;;4.00;0.80;;;-3.60;99.90;;;;;;4919925;29;20035;-82
2021/12/25 07:22:19;;;;;;;3.33;0.50;;;-4.80;99.90;;;;;;4934079;29;20141;-82
2021/12/25 07:24:47;;;;;;;2.65;0.52;;;-4.80;99.90;;;;;;4918753;29;20095;-84
2021/12/25 07:27:13;;;;;;;4.40;0.80;;;-4.70;99.90;;;;;;4925010;28;20039;-84
2021/12/25 07:29:39;;;;;;;3.17;0.50;;;-4.90;99.90;;;;;;4931355;28;20526;-83
2021/12/25 07:32:05;;;;;;;2.15;0.50;;;-4.90;99.90;;;;;;4936284;28;20042;-83
2021/12/25 07:34:31;;;;;;;3.78;0.60;;;-4.90;99.90;;;;;;4937287;28;20031;-83
2021/12/25 07:36:58;;;;;;;4.53;0.82;;;-4.90;99.90;;;;;;4937643;28;20057;-83
2021/12/25 07:39:23;;;;;;;2.40;0.32;;;-5.00;99.90;;;;;;4936234;28;20182;-83
2021/12/25 07:41:49;;;;;;;3.60;0.50;;;-5.00;99.90;;;;;;4953683;28;20133;-83
2021/12/25 07:44:15;;;;;;;3.53;0.70;;;-5.00;99.90;;;;;;4953391;28;20494;-83
2021/12/25 07:46:43;;;;;;;5.70;0.73;;;-5.00;99.90;;;;;;4936454;28;20178;-84
2021/12/25 07:49:15;;;;;;;3.42;0.60;;;-5.00;99.90;;;;;;4952997;28;20050;-82
2021/12/25 07:51:41;;;;;;;3.97;0.50;;;-5.00;99.90;;;;;;4936881;28;20058;-82
2021/12/25 07:54:07;;;;;;;3.08;0.55;;;-5.00;99.90;;;;;;4936877;28;20038;-83
2021/12/25 07:56:33;;;;;;;3.45;0.50;;;-5.00;99.90;;;;;;4937045;28;20046;-83
2021/12/25 07:58:58;;;;;;;4.70;0.50;;;-5.00;99.90;;;;;;4937757;28;20073;-83
2021/12/25 08:01:24;;;;;;;1.80;0.50;;;-5.10;99.90;;;;;;4952365;28;20112;-83
2021/12/25 08:03:50;;;;;;;1.10;0.50;;;-5.10;99.90;;;;;;4923143;29;20055;-83
2021/12/25 08:06:16;;;;;;;3.15;0.70;;;-5.10;99.90;;;;;;4932773;28;20600;-84
2021/12/25 08:08:42;;;;;;;5.22;0.52;;;-5.10;99.90;;;;;;4952186;28;20072;-84
2021/12/25 08:11:08;;;;;;;3.05;0.60;;;-5.10;99.90;;;;;;4948949;29;20035;-86
2021/12/25 08:13:33;;;;;;;2.72;0.60;;;-5.10;99.90;;;;;;4917033;29;20047;-82
2021/12/25 08:15:59;;;;;;;3.60;0.70;;;-5.10;99.90;;;;;;4917919;28;20047;-83
2021/12/25 08:18:25;;;;;;;1.77;0.70;;;-4.30;99.90;;;;;;4916236;29;20043;-82
2021/12/25 08:20:50;;;;;;;7.55;1.00;;;-5.10;99.90;;;;;;4916873;29;20051;-81
2021/12/25 08:23:16;;;;;;;1.15;0.50;;;-5.10;99.90;;;;;;4917705;29;20058;-81
2021/12/25 08:25:42;;;;;;;4.28;0.85;;;-5.60;99.90;;;;;;4918249;29;20047;-82
2021/12/25 08:28:09;;;;;;;7.57;0.70;;;-5.10;99.90;;;;;;4932440;29;20097;-82
2021/12/25 08:30:35;;;;;;;2.20;0.50;;;-4.10;99.90;;;;;;4917782;29;20540;-81
2021/12/25 08:33:01;;;;;;;2.17;0.45;;;-5.10;99.90;;;;;;4916617;29;20049;-81
2021/12/25 08:35:28;;;;;;;8.10;0.85;;;-5.00;99.90;;;;;;4917015;29;20059;-82
2021/12/25 08:37:54;;;;;;;5.32;0.50;;;-5.00;99.90;;;;;;4917763;29;20479;-82
2021/12/25 08:40:23;;;;;;;7.93;0.60;;;-4.70;99.90;;;;;;4945242;28;20043;-81
2021/12/25 08:42:57;;;;;;;5.30;0.80;;;-5.00;99.90;;;;;;4968455;28;20109;-82
2021/12/25 08:45:42;;;;;;;3.75;0.60;;;-5.00;99.90;;;;;;4953333;28;20051;-82
2021/12/25 08:48:18;;;;;;;3.22;0.63;;;-5.00;99.90;;;;;;4968174;28;20403;-82
2021/12/25 08:50:56;;;;;;;2.08;0.60;;;-5.20;99.90;;;;;;4940166;28;20039;-82
2021/12/25 08:53:24;;;;;;;3.30;0.50;;;-4.90;99.90;;;;;;4932609;29;20047;-82
2021/12/25 08:55:51;;;;;;;3.75;0.80;;;-4.90;99.90;;;;;;4932566;29;20051;-82
2021/12/25 08:58:18;;;;;;;3.92;0.50;;;-4.80;99.90;;;;;;4932352;29;20070;-82
2021/12/25 09:01:00;;;;;;;3.17;0.57;;;-4.80;99.90;;;;;;4933247;29;20051;-83
2021/12/25 09:03:27;;;;;;;3.75;0.70;;;-4.80;99.90;;;;;;4931212;29;20055;-83
2021/12/25 09:06:01;;;;;;;2.55;0.65;;;-4.80;99.90;;;;;;4932739;28;20059;-84
2021/12/25 09:08:27;;;;;;;2.08;0.55;;;-4.70;99.90;;;;;;4932598;29;20069;-83
2021/12/25 09:10:54;;;;;;;2.90;0.82;;;-4.70;99.90;;;;;;4932524;29;20487;-84
2021/12/25 09:13:20;;;;;;;4.07;0.63;;;-4.60;99.90;;;;;;4932473;29;20486;-83
2021/12/25 09:15:46;;;;;;;3.35;1.25;;;-4.60;99.90;;;;;;4933103;29;20130;-84
2021/12/25 09:18:11;;;;;;;3.08;0.65;;;-4.60;99.90;;;;;;4931551;29;20057;-84
2021/12/25 09:20:38;;;;;;;7.45;0.80;;;-4.60;99.90;;;;;;4955970;28;20069;-83
2021/12/25 09:23:04;;;;;;;2.45;0.47;;;-4.50;99.90;;;;;;4954857;28;20101;-83
2021/12/25 09:25:29;;;;;;;1.13;0.45;;;-4.50;99.90;;;;;;4970354;28;20054;-83
2021/12/25 09:27:55;;;;;;;2.33;0.60;;;-4.50;99.90;;;;;;4954976;28;20046;-83
2021/12/25 09:30:22;;;;;;;4.07;0.70;;;-4.50;99.90;;;;;;4957777;28;20038;-83
2021/12/25 09:32:48;;;;;;;4.72;0.88;;;-4.50;99.90;;;;;;4926544;28;20106;-83
2021/12/25 09:35:14;;;;;;;3.40;0.88;;;-3.60;99.90;;;;;;4932878;28;20066;-83
2021/12/25 09:37:40;;;;;;;3.03;0.60;;;-4.00;99.90;;;;;;4936064;28;20051;-83
2021/12/25 09:40:25;;;;;;;5.72;0.70;;;-4.40;99.90;;;;;;4922094;29;20061;-83
2021/12/25 09:42:50;;;;;;;2.13;0.98;;;-4.30;99.90;;;;;;4936000;28;20134;-82
2021/12/25 09:45:17;;;;;;;5.57;0.68;;;-4.40;99.90;;;;;;4966592;28;20430;-83
2021/12/25 09:47:52;;;;;;;2.08;0.50;;;-3.00;99.90;;;;;;4953462;28;20045;-83
2021/12/25 09:50:18;;;;;;;2.58;0.52;;;-4.30;99.90;;;;;;4969661;28;20078;-82
2021/12/25 09:52:44;;;;;;;5.95;0.70;;;-4.20;99.90;;;;;;4951018;28;20136;-82
2021/12/25 09:55:18;;;;;;;4.15;1.00;;;-4.20;99.90;;;;;;4965830;28;20065;-82
2021/12/25 09:57:46;;;;;;;1.75;0.60;;;-4.10;99.90;;;;;;4962088;28;20031;-82
2021/12/25 10:00:15;;;;;;;4.68;0.82;;;-3.90;99.90;;;;;;4971937;28;20058;-82
2021/12/25 10:02:44;;;;;;;3.50;0.68;;;-4.10;99.90;;;;;;4971996;28;20117;-83
2021/12/25 10:05:10;;;;;;;5.38;0.80;;;-4.00;99.90;;;;;;4956602;28;20047;-83
2021/12/25 10:07:36;;;;;;;2.40;1.02;;;-4.00;99.90;;;;;;4989084;28;20224;-82
2021/12/25 10:10:10;;;;;;;1.98;0.68;;;-4.00;99.90;;;;;;4974746;28;20042;-83
2021/12/25 10:12:40;;;;;;;2.35;0.70;;;-3.90;99.90;;;;;;4973581;28;20750;-83
2021/12/25 10:15:10;;;;;;;1.75;0.75;;;-3.90;99.90;;;;;;4974174;28;20434;-82
2021/12/25 10:17:48;;;;;;;2.78;0.80;;;-3.90;99.90;;;;;;4973073;28;20088;-83
2021/12/25 10:20:18;;;;;;;4.35;0.63;;;-3.80;99.90;;;;;;4954318;28;20034;-82
2021/12/25 10:23:00;;;;;;;2.88;0.68;;;-3.00;99.90;;;;;;4965718;28;20085;-83
2021/12/25 10:25:32;;;;;;;7.60;1.05;;;-3.70;99.90;;;;;;4993573;28;20119;-83
2021/12/25 10:28:06;;;;;;;5.40;0.60;;;-2.40;99.90;;;;;;4976145;28;20434;-83
2021/12/25 10:30:44;;;;;;;6.07;0.80;;;-3.70;99.90;;;;;;4982085;28;20086;-82
2021/12/25 10:33:23;;;;;;;3.22;0.70;;;-3.60;99.90;;;;;;4973696;28;20049;-83
2021/12/25 10:35:48;;;;;;;1.95;0.68;;;-3.60;99.90;;;;;;4973991;28;20049;-83
2021/12/25 10:38:17;;;;;;;3.75;0.90;;;-3.50;99.90;;;;;;4973069;28;20042;-83
2021/12/25 10:40:43;;;;;;;2.22;0.60;;;-3.50;99.90;;;;;;4958054;28;20255;-84
2021/12/25 10:43:19;;;;;;;2.35;0.75;;;-3.40;99.90;;;;;;4970708;28;20069;-84
2021/12/25 10:45:59;;;;;;;4.32;0.80;;;-3.40;99.90;;;;;;4974033;28;20209;-82
2021/12/25 10:48:28;;;;;;;3.95;0.90;;;-3.30;99.90;;;;;;4979291;28;20132;-83
2021/12/25 10:50:54;;;;;;;5.30;0.80;;;-3.30;99.90;;;;;;4963059;28;20053;-83
2021/12/25 10:53:24;;;;;;;5.40;0.60;;;-3.20;99.90;;;;;;4973477;28;20034;-84
2021/12/25 10:55:50;;;;;;;5.80;0.60;;;-3.20;99.90;;;;;;4957234;28;20053;-84
2021/12/25 10:58:22;;;;;;;3.47;0.80;;;-3.10;99.90;;;;;;4957029;28;20506;-83
2021/12/25 11:00:54;;;;;;;5.13;0.85;;;-3.10;99.90;;;;;;4958118;28;20049;-84
2021/12/25 11:03:28;;;;;;;4.50;0.90;;;-3.10;99.90;;;;;;4971992;28;20117;-84
2021/12/25 11:05:54;;;;;;;2.67;0.65;;;-3.10;99.90;;;;;;4957659;28;20054;-85
2021/12/25 11:08:22;;;;;;;3.42;0.85;;;-3.00;99.90;;;;;;4956193;28;20050;-83
2021/12/25 11:10:49;;;;;;;5.85;0.90;;;-3.00;99.90;;;;;;4957065;28;20133;-83
2021/12/25 11:13:31;;;;;;;5.65;0.90;;;-3.00;99.90;;;;;;4956689;28;20038;-83
2021/12/25 11:16:04;;;;;;;10.02;1.00;;;-3.00;99.90;;;;;;4957349;28;20050;-83
2021/12/25 11:19:01;;;;;;;2.88;0.65;;;-2.90;99.90;;;;;;4954939;28;20053;-84
2021/12/25 11:21:29;;;;;;;4.30;0.73;;;-3.00;99.90;;;;;;4956893;28;20042;-83
2021/12/25 11:24:08;;;;;;;4.50;1.13;;;-2.90;99.90;;;;;;4961721;28;20486;-84
2021/12/25 11:26:36;;;;;;;4.35;1.00;;;-2.90;99.90;;;;;;4991763;28;20052;-90
2021/12/25 11:29:04;;;;;;;5.28;1.10;;;-2.80;99.90;;;;;;4976392;28;20042;-86
2021/12/25 11:31:31;;;;;;;5.63;1.02;;;-2.80;99.90;;;;;;4992306;28;20048;-84
2021/12/25 11:33:57;;;;;;;6.50;0.90;;;-2.80;99.90;;;;;;4992354;28;20104;-81
2021/12/25 11:36:23;;;;;;;4.78;1.20;;;-2.80;99.90;;;;;;4991454;28;20045;-81
2021/12/25 11:38:50;;;;;;;2.45;0.70;;;-2.80;99.90;;;;;;4975053;28;20493;-81
2021/12/25 11:41:17;;;;;;;3.53;0.98;;;-2.70;99.90;;;;;;4953270;28;20078;-83
2021/12/25 11:43:45;;;;;;;5.57;1.10;;;-2.70;99.90;;;;;;4937511;28;20054;-82
2021/12/25 11:46:13;;;;;;;4.68;0.80;;;-2.70;99.90;;;;;;4952258;28;20042;-83
2021/12/25 11:48:39;;;;;;;4.60;1.00;;;-2.70;99.90;;;;;;4935793;28;20470;-84
2021/12/25 11:51:06;;;;;;;4.75;1.20;;;-2.70;99.90;;;;;;4936534;28;20057;-84
2021/12/25 11:53:53;;;;;;;6.55;0.85;;;-2.70;99.90;;;;;;4935935;28;20053;-83
2021/12/25 11:58:50;;;;;;;3.03;0.95;;;-2.70;99.90;;;;;;4951986;28;20138;-84
2021/12/25 12:01:19;;;;;;;5.32;1.20;;;-2.60;99.90;;;;;;4937304;28;20577;-85
2021/12/25 12:03:52;;;;;;;7.03;0.90;;;-2.60;99.90;;;;;;4936151;28;20089;-83
2021/12/25 12:06:18;;;;;;;4.15;1.20;;;-2.60;99.90;;;;;;4951674;28;20061;-85
2021/12/25 12:08:53;;;;;;;6.93;1.33;;;-2.10;99.90;;;;;;4952381;28;20050;-85
2021/12/25 12:11:25;;;;;;;4.60;0.98;;;-2.50;99.90;;;;;;4936774;28;20525;-83
2021/12/25 12:14:27;;;;;;;5.40;0.80;;;-2.50;99.90;;;;;;4952223;28;20108;-83
2021/12/25 12:16:58;;;;;;;7.80;1.00;;;-2.50;99.90;;;;;;4936124;28;20043;-83
2021/12/25 12:19:41;;;;;;;3.78;1.05;;;-2.50;99.90;;;;;;4952765;28;20057;-82
2021/12/25 12:22:36;;;;;;;2.80;1.13;;;-2.50;99.90;;;;;;4936177;28;20074;-83
2021/12/25 12:27:35;;;;;;;4.10;0.75;;;-2.50;99.90;;;;;;4970138;28;20050;-84
2021/12/25 12:30:10;;;;;;;5.03;1.02;;;-2.40;99.90;;;;;;4956414;28;20073;-83
2021/12/25 12:32:46;;;;;;;4.05;1.10;;;-2.40;99.90;;;;;;4970942;28;20112;-86
2021/12/25 12:35:33;;;;;;;3.38;1.15;;;-2.40;99.90;;;;;;4955323;28;20050;-87
2021/12/25 12:38:26;;;;;;;6.18;1.10;;;-2.40;99.90;;;;;;4971409;28;20125;-82
2021/12/25 12:41:15;;;;;;;7.85;1.00;;;-2.40;99.90;;;;;;4955293;28;20386;-83
2021/12/25 12:43:58;;;;;;;3.75;0.85;;;-2.40;99.90;;;;;;4971640;28;20054;-84
2021/12/25 12:46:58;;;;;;;5.50;1.00;;;-2.40;99.90;;;;;;4971145;28;20051;-83
2021/12/25 12:49:32;;;;;;;3.92;1.00;;;-2.40;99.90;;;;;;4970762;28;20296;-84
2021/12/25 12:52:16;;;;;;;3.40;0.85;;;-2.40;99.90;;;;;;4955820;28;20045;-85
2021/12/25 12:54:43;;;;;;;;;;;-2.40;99.90;;;;;;4956213;28;20116;-83
2021/12/25 12:57:09;;;;;;;5.55;1.17;;;-2.30;99.90;;;;;;4971046;28;19927;-84
2021/12/25 12:59:51;;;;;;;2.97;0.88;;;-2.30;99.90;;;;;;4971110;28;20069;-86
2021/12/25 13:02:17;;;;;;;4.47;1.10;;;-2.30;99.90;;;;;;4954284;28;20418;-86
2021/12/25 13:04:48;;;;;;;8.80;1.15;;;-2.30;99.90;;;;;;4963811;28;20046;-87
2021/12/25 13:07:17;;;;;;;3.55;1.10;;;-2.30;99.90;;;;;;4973174;28;20054;-86
2021/12/25 13:09:50;;;;;;;6.00;1.17;;;-1.40;99.90;;;;;;4970561;28;20051;-86
2021/12/25 13:12:31;;;;;;;5.45;1.02;;;-2.30;99.90;;;;;;4971962;28;20506;-87
2021/12/25 13:15:00;;;;;;;5.13;1.10;;;-2.30;99.90;;;;;;4968552;28;20045;-87
2021/12/25 13:17:26;;;;;;;4.15;1.02;;;-2.30;99.90;;;;;;4970944;28;20046;-87
2021/12/25 13:19:52;;;;;;;4.80;0.90;;;-2.30;99.90;;;;;;4974508;28;20045;-87
2021/12/25 13:22:17;;;;;;;3.33;0.98;;;-2.30;99.90;;;;;;4972234;28;20042;-86
2021/12/25 13:24:43;;;;;;;4.45;0.90;;;-2.30;99.90;;;;;;4971971;28;20049;-88
2021/12/25 13:27:18;;;;;;;4.47;0.90;;;-2.40;99.90;;;;;;4990191;28;20053;-86
2021/12/25 13:29:43;;;;;;;3.58;1.00;;;-1.60;99.90;;;;;;4975030;28;20038;-87
2021/12/25 13:32:09;;;;;;;6.60;1.02;;;-2.40;99.90;;;;;;4990719;28;20629;-87
2021/12/25 13:34:39;;;;;;;3.13;1.00;;;-2.30;99.90;;;;;;4991635;28;20959;-87
2021/12/25 13:37:13;;;;;;;4.60;1.15;;;-2.40;99.90;;;;;;4974566;28;20053;-87
2021/12/25 13:39:40;;;;;;;2.13;0.95;;;-2.30;99.90;;;;;;4965112;28;20039;-87
2021/12/25 13:42:10;;;;;;;9.38;1.00;;;-2.40;99.90;;;;;;4953326;28;20051;-87
2021/12/25 13:44:39;;;;;;;4.82;0.85;;;-2.40;99.90;;;;;;4951690;28;20101;-84
2021/12/25 13:47:12;;;;;;;7.18;1.10;;;-2.40;99.90;;;;;;4951804;28;20483;-87
2021/12/25 13:49:42;;;;;;;6.00;1.00;;;-2.40;99.90;;;;;;4935054;28;20133;-85
2021/12/25 13:52:19;;;;;;;5.13;1.08;;;-2.40;99.90;;;;;;4951579;28;20122;-85
2021/12/25 13:54:48;;;;;;;8.95;1.08;;;-2.40;99.90;;;;;;4936673;28;20089;-86
2021/12/25 13:57:14;;;;;;;6.05;1.00;;;-2.40;99.90;;;;;;4951987;28;20566;-85
2021/12/25 13:59:41;;;;;;;11.05;1.00;;;-2.40;99.90;;;;;;4951853;28;20399;-86
2021/12/25 14:02:11;;;;;;;5.13;1.02;;;-2.40;99.90;;;;;;4967708;28;20058;-86
2021/12/25 14:04:40;;;;;;;2.92;0.90;;;-2.50;99.90;;;;;;4952031;28;20362;-86